sensor_id;sensor_type;location;lat;lon;timestamp;pressure;altitude;pressure_sealevel;temperature;humidity
42633;BME280;28261;53.304;-6.284;2022-11-24T00:01:29;98541.28;;;6.24;96.39
42633;BME280;28261;53.304;-6.284;2022-11-24T00:03:34;98534.25;;;6.25;96.50
42633;BME280;28261;53.304;-6.284;2022-11-24T00:05:38;98548.09;;;6.27;96.19
42633;BME280;28261;53.304;-6.284;2022-11-24T00:07:41;98544.50;;;6.28;96.13
42633;BME280;28261;53.304;-6.284;2022-11-24T00:09:45;98538.41;;;6.28;96.12
42633;BME280;28261;53.304;-6.284;2022-11-24T00:11:51;98543.69;;;6.28;95.81
42633;BME280;28261;53.304;-6.284;2022-11-24T00:13:55;98561.97;;;6.29;95.77
42633;BME280;28261;53.304;-6.284;2022-11-24T00:16:07;98565.28;;;6.31;95.53
42633;BME280;28261;53.304;-6.284;2022-11-24T00:18:12;98555.75;;;6.30;95.23
42633;BME280;28261;53.304;-6.284;2022-11-24T00:20:16;98560.75;;;6.33;94.78
42633;BME280;28261;53.304;-6.284;2022-11-24T00:22:21;98558.13;;;6.33;94.88
42633;BME280;28261;53.304;-6.284;2022-11-24T00:24:24;98571.97;;;6.35;94.77
42633;BME280;28261;53.304;-6.284;2022-11-24T00:26:30;98581.66;;;6.35;94.76
42633;BME280;28261;53.304;-6.284;2022-11-24T00:28:35;98577.22;;;6.35;95.00
42633;BME280;28261;53.304;-6.284;2022-11-24T00:30:40;98581.53;;;6.36;94.83
42633;BME280;28261;53.304;-6.284;2022-11-24T00:32:43;98574.59;;;6.35;94.41
42633;BME280;28261;53.304;-6.284;2022-11-24T00:34:47;98584.16;;;6.36;94.28
42633;BME280;28261;53.304;-6.284;2022-11-24T00:36:50;98585.97;;;6.36;94.05
42633;BME280;28261;53.304;-6.284;2022-11-24T00:38:55;98591.09;;;6.37;93.66
42633;BME280;28261;53.304;-6.284;2022-11-24T00:40:59;98591.09;;;6.37;93.09
42633;BME280;28261;53.304;-6.284;2022-11-24T00:43:02;98606.91;;;6.37;93.25
42633;BME280;28261;53.304;-6.284;2022-11-24T00:45:08;98592.06;;;6.36;93.03
42633;BME280;28261;53.304;-6.284;2022-11-24T00:47:15;98608.66;;;6.37;93.14
42633;BME280;28261;53.304;-6.284;2022-11-24T00:49:18;98608.66;;;6.37;92.83
42633;BME280;28261;53.304;-6.284;2022-11-24T00:51:24;98623.50;;;6.38;92.57
42633;BME280;28261;53.304;-6.284;2022-11-24T00:53:29;98618.09;;;6.39;92.05
42633;BME280;28261;53.304;-6.284;2022-11-24T00:55:33;98617.97;;;6.41;92.05
42633;BME280;28261;53.304;-6.284;2022-11-24T00:57:37;98639.03;;;6.41;92.01
42633;BME280;28261;53.304;-6.284;2022-11-24T00:59:40;98644.28;;;6.41;92.08
42633;BME280;28261;53.304;-6.284;2022-11-24T01:01:45;98645.16;;;6.41;91.88
42633;BME280;28261;53.304;-6.284;2022-11-24T01:03:49;98639.88;;;6.41;91.61
42633;BME280;28261;53.304;-6.284;2022-11-24T01:05:53;98646.94;;;6.41;91.98
42633;BME280;28261;53.304;-6.284;2022-11-24T01:07:57;98647.91;;;6.40;91.99
42633;BME280;28261;53.304;-6.284;2022-11-24T01:10:00;98642.78;;;6.38;91.75
42633;BME280;28261;53.304;-6.284;2022-11-24T01:12:04;98649.81;;;6.38;92.07
42633;BME280;28261;53.304;-6.284;2022-11-24T01:14:10;98665.75;;;6.36;92.06
42633;BME280;28261;53.304;-6.284;2022-11-24T01:16:15;98663.94;;;6.37;91.81
42633;BME280;28261;53.304;-6.284;2022-11-24T01:18:21;98670.06;;;6.37;91.41
42633;BME280;28261;53.304;-6.284;2022-11-24T01:20:25;98675.31;;;6.37;91.20
42633;BME280;28261;53.304;-6.284;2022-11-24T01:22:28;98681.53;;;6.36;90.73
42633;BME280;28261;53.304;-6.284;2022-11-24T01:24:32;98686.78;;;6.36;90.18
42633;BME280;28261;53.304;-6.284;2022-11-24T01:26:36;98677.00;;;6.38;89.66
42633;BME280;28261;53.304;-6.284;2022-11-24T01:28:41;98686.53;;;6.39;89.51
42633;BME280;28261;53.304;-6.284;2022-11-24T01:30:56;98688.34;;;6.39;89.29
42633;BME280;28261;53.304;-6.284;2022-11-24T01:33:00;98682.13;;;6.40;89.08
42633;BME280;28261;53.304;-6.284;2022-11-24T01:35:06;98689.16;;;6.39;89.01
42633;BME280;28261;53.304;-6.284;2022-11-24T01:37:10;98698.03;;;6.38;88.66
42633;BME280;28261;53.304;-6.284;2022-11-24T01:39:13;98700.56;;;6.40;87.55
42633;BME280;28261;53.304;-6.284;2022-11-24T01:41:18;98703.19;;;6.40;87.57
42633;BME280;28261;53.304;-6.284;2022-11-24T01:43:22;98688.34;;;6.39;87.71
42633;BME280;28261;53.304;-6.284;2022-11-24T01:45:30;98688.34;;;6.39;87.57
42633;BME280;28261;53.304;-6.284;2022-11-24T01:47:36;98701.38;;;6.40;87.15
42633;BME280;28261;53.304;-6.284;2022-11-24T01:49:44;98695.28;;;6.40;87.33
42633;BME280;28261;53.304;-6.284;2022-11-24T01:51:53;98703.31;;;6.38;87.65
42633;BME280;28261;53.304;-6.284;2022-11-24T01:54:00;98694.69;;;6.36;87.52
42633;BME280;28261;53.304;-6.284;2022-11-24T01:56:06;98687.75;;;6.35;87.51
42633;BME280;28261;53.304;-6.284;2022-11-24T01:58:13;98689.69;;;6.33;87.75
42633;BME280;28261;53.304;-6.284;2022-11-24T02:00:18;98681.78;;;6.33;87.71
42633;BME280;28261;53.304;-6.284;2022-11-24T02:02:22;98688.00;;;6.32;87.73
42633;BME280;28261;53.304;-6.284;2022-11-24T02:04:29;98691.59;;;6.31;87.44
42633;BME280;28261;53.304;-6.284;2022-11-24T02:06:36;98685.50;;;6.31;87.59
42633;BME280;28261;53.304;-6.284;2022-11-24T02:08:46;98702.13;;;6.31;87.18
42633;BME280;28261;53.304;-6.284;2022-11-24T02:10:51;98688.84;;;6.33;86.98
42633;BME280;28261;53.304;-6.284;2022-11-24T02:12:58;98701.91;;;6.34;86.25
42633;BME280;28261;53.304;-6.284;2022-11-24T02:15:02;98700.78;;;6.37;85.97
42633;BME280;28261;53.304;-6.284;2022-11-24T02:17:06;98700.78;;;6.37;85.87
42633;BME280;28261;53.304;-6.284;2022-11-24T02:19:13;98706.91;;;6.37;85.61
42633;BME280;28261;53.304;-6.284;2022-11-24T02:21:20;98711.31;;;6.37;85.56
42633;BME280;28261;53.304;-6.284;2022-11-24T02:23:29;98706.91;;;6.37;85.56
42633;BME280;28261;53.304;-6.284;2022-11-24T02:25:45;98699.13;;;6.36;85.63
42633;BME280;28261;53.304;-6.284;2022-11-24T02:27:55;98704.41;;;6.36;85.22
42633;BME280;28261;53.304;-6.284;2022-11-24T02:29:59;98694.69;;;6.36;85.30
42633;BME280;28261;53.304;-6.284;2022-11-24T02:32:05;98687.06;;;6.33;85.85
42633;BME280;28261;53.304;-6.284;2022-11-24T02:34:10;98688.00;;;6.32;85.89
42633;BME280;28261;53.304;-6.284;2022-11-24T02:36:14;98700.47;;;6.30;85.87
42633;BME280;28261;53.304;-6.284;2022-11-24T02:38:17;98711.00;;;6.30;85.67
42633;BME280;28261;53.304;-6.284;2022-11-24T02:40:24;98697.84;;;6.30;85.74
42633;BME280;28261;53.304;-6.284;2022-11-24T02:42:32;98711.94;;;6.29;85.82
42633;BME280;28261;53.304;-6.284;2022-11-24T02:44:43;98698.78;;;6.29;85.63
42633;BME280;28261;53.304;-6.284;2022-11-24T02:46:49;98699.63;;;6.30;85.59
42633;BME280;28261;53.304;-6.284;2022-11-24T02:49:03;98697.84;;;6.30;85.92
42633;BME280;28261;53.304;-6.284;2022-11-24T02:51:07;98686.47;;;6.30;85.55
42633;BME280;28261;53.304;-6.284;2022-11-24T02:53:11;98684.69;;;6.30;85.64
42633;BME280;28261;53.304;-6.284;2022-11-24T02:55:14;98688.84;;;6.33;85.60
42633;BME280;28261;53.304;-6.284;2022-11-24T02:57:18;98697.59;;;6.33;85.62
42633;BME280;28261;53.304;-6.284;2022-11-24T02:59:24;98699.13;;;6.36;85.62
42633;BME280;28261;53.304;-6.284;2022-11-24T03:01:29;98699.94;;;6.36;84.98
42633;BME280;28261;53.304;-6.284;2022-11-24T03:03:33;98682.94;;;6.40;84.71
42633;BME280;28261;53.304;-6.284;2022-11-24T03:05:37;98685.31;;;6.43;84.42
42633;BME280;28261;53.304;-6.284;2022-11-24T03:07:41;98689.63;;;6.44;84.70
42633;BME280;28261;53.304;-6.284;2022-11-24T03:09:45;98700.16;;;6.44;85.01
42633;BME280;28261;53.304;-6.284;2022-11-24T03:11:48;98698.47;;;6.43;85.17
42633;BME280;28261;53.304;-6.284;2022-11-24T03:13:52;98707.22;;;6.44;85.58
42633;BME280;28261;53.304;-6.284;2022-11-24T03:15:56;98695.03;;;6.43;85.72
42633;BME280;28261;53.304;-6.284;2022-11-24T03:18:01;98697.53;;;6.44;86.01
42633;BME280;28261;53.304;-6.284;2022-11-24T03:20:06;98696.56;;;6.46;86.39
42633;BME280;28261;53.304;-6.284;2022-11-24T03:22:11;98693.69;;;6.49;86.31
42633;BME280;28261;53.304;-6.284;2022-11-24T03:24:14;98692.00;;;6.48;86.54
42633;BME280;28261;53.304;-6.284;2022-11-24T03:26:20;98690.09;;;6.50;86.96
42633;BME280;28261;53.304;-6.284;2022-11-24T03:28:24;98693.19;;;6.55;86.88
42633;BME280;28261;53.304;-6.284;2022-11-24T03:30:27;98709.53;;;6.58;87.13
42633;BME280;28261;53.304;-6.284;2022-11-24T03:32:31;98699.59;;;6.62;87.50
42633;BME280;28261;53.304;-6.284;2022-11-24T03:34:37;98687.13;;;6.64;87.85
42633;BME280;28261;53.304;-6.284;2022-11-24T03:36:42;98686.91;;;6.67;88.32
42633;BME280;28261;53.304;-6.284;2022-11-24T03:38:46;98702.44;;;6.70;88.69
42633;BME280;28261;53.304;-6.284;2022-11-24T03:40:51;98681.09;;;6.73;88.63
42633;BME280;28261;53.304;-6.284;2022-11-24T03:42:54;98693.03;;;6.77;88.89
42633;BME280;28261;53.304;-6.284;2022-11-24T03:44:58;98689.19;;;6.82;89.21
42633;BME280;28261;53.304;-6.284;2022-11-24T03:47:22;98689.91;;;6.84;89.15
42633;BME280;28261;53.304;-6.284;2022-11-24T03:49:26;98674.78;;;6.86;89.59
42633;BME280;28261;53.304;-6.284;2022-11-24T03:51:31;98678.97;;;6.88;89.41
42633;BME280;28261;53.304;-6.284;2022-11-24T03:53:34;98681.47;;;6.90;90.04
42633;BME280;28261;53.304;-6.284;2022-11-24T03:55:38;98681.34;;;6.91;90.04
42633;BME280;28261;53.304;-6.284;2022-11-24T03:57:42;98668.16;;;6.91;90.30
42633;BME280;28261;53.304;-6.284;2022-11-24T03:59:45;98681.25;;;6.93;90.50
42633;BME280;28261;53.304;-6.284;2022-11-24T04:01:48;98689.56;;;6.98;91.28
42633;BME280;28261;53.304;-6.284;2022-11-24T04:03:52;98685.00;;;7.00;91.14
42633;BME280;28261;53.304;-6.284;2022-11-24T04:05:55;98683.78;;;7.04;90.89
42633;BME280;28261;53.304;-6.284;2022-11-24T04:08:00;98687.81;;;7.08;91.03
42633;BME280;28261;53.304;-6.284;2022-11-24T04:10:05;98694.63;;;7.11;91.39
42633;BME280;28261;53.304;-6.284;2022-11-24T04:12:09;98694.38;;;7.14;91.15
42633;BME280;28261;53.304;-6.284;2022-11-24T04:14:30;98708.22;;;7.16;91.01
42633;BME280;28261;53.304;-6.284;2022-11-24T04:16:34;98691.59;;;7.16;90.80
42633;BME280;28261;53.304;-6.284;2022-11-24T04:18:37;98708.00;;;7.19;91.30
42633;BME280;28261;53.304;-6.284;2022-11-24T04:20:41;98697.31;;;7.21;90.84
42633;BME280;28261;53.304;-6.284;2022-11-24T04:22:44;98700.63;;;7.23;90.95
42633;BME280;28261;53.304;-6.284;2022-11-24T04:24:49;98709.25;;;7.25;90.67
42633;BME280;28261;53.304;-6.284;2022-11-24T04:26:52;98720.50;;;7.27;90.37
42633;BME280;28261;53.304;-6.284;2022-11-24T04:28:55;98726.47;;;7.29;90.21
42633;BME280;28261;53.304;-6.284;2022-11-24T04:31:00;98726.47;;;7.29;90.10
42633;BME280;28261;53.304;-6.284;2022-11-24T04:33:04;98727.44;;;7.28;90.18
42633;BME280;28261;53.304;-6.284;2022-11-24T04:35:08;98721.06;;;7.31;90.18
42633;BME280;28261;53.304;-6.284;2022-11-24T04:37:11;98717.34;;;7.33;89.86
42633;BME280;28261;53.304;-6.284;2022-11-24T04:39:14;98718.34;;;7.42;89.50
42633;BME280;28261;53.304;-6.284;2022-11-24T04:41:28;98717.25;;;7.44;89.05
42633;BME280;28261;53.304;-6.284;2022-11-24T04:43:32;98710.31;;;7.43;89.59
42633;BME280;28261;53.304;-6.284;2022-11-24T04:45:41;98715.84;;;7.40;89.23
42633;BME280;28261;53.304;-6.284;2022-11-24T04:47:44;98724.97;;;7.36;89.93
42633;BME280;28261;53.304;-6.284;2022-11-24T04:49:48;98725.38;;;7.32;90.06
42633;BME280;28261;53.304;-6.284;2022-11-24T04:51:52;98722.75;;;7.32;90.02
42633;BME280;28261;53.304;-6.284;2022-11-24T04:53:55;98721.91;;;7.31;90.50
42633;BME280;28261;53.304;-6.284;2022-11-24T04:55:58;98721.06;;;7.31;91.28
42633;BME280;28261;53.304;-6.284;2022-11-24T04:58:03;98719.97;;;7.33;91.32
42633;BME280;28261;53.304;-6.284;2022-11-24T05:00:09;98721.91;;;7.31;91.79
42633;BME280;28261;53.304;-6.284;2022-11-24T05:02:13;98716.38;;;7.34;92.18
42633;BME280;28261;53.304;-6.284;2022-11-24T05:04:16;98712.66;;;7.37;91.43
42633;BME280;28261;53.304;-6.284;2022-11-24T05:06:22;98707.50;;;7.35;91.53
42633;BME280;28261;53.304;-6.284;2022-11-24T05:08:25;98692.97;;;7.41;92.63
42633;BME280;28261;53.304;-6.284;2022-11-24T05:10:29;98691.84;;;7.43;93.00
42633;BME280;28261;53.304;-6.284;2022-11-24T05:12:37;98678.66;;;7.43;93.35
42633;BME280;28261;53.304;-6.284;2022-11-24T05:14:41;98690.06;;;7.44;93.67
42633;BME280;28261;53.304;-6.284;2022-11-24T05:16:45;98695.19;;;7.45;93.56
42633;BME280;28261;53.304;-6.284;2022-11-24T05:18:48;98686.47;;;7.45;94.17
42633;BME280;28261;53.304;-6.284;2022-11-24T05:20:52;98688.13;;;7.46;94.71
42633;BME280;28261;53.304;-6.284;2022-11-24T05:23:00;98687.00;;;7.49;94.72
42633;BME280;28261;53.304;-6.284;2022-11-24T05:25:04;98686.06;;;7.50;95.37
42633;BME280;28261;53.304;-6.284;2022-11-24T05:27:07;98681.06;;;7.47;94.17
42633;BME280;28261;53.304;-6.284;2022-11-24T05:29:11;98665.31;;;7.35;94.22
42633;BME280;28261;53.304;-6.284;2022-11-24T05:31:16;98673.47;;;7.22;94.13
42633;BME280;28261;53.304;-6.284;2022-11-24T05:33:19;98660.25;;;7.13;93.90
42633;BME280;28261;53.304;-6.284;2022-11-24T05:35:24;98663.94;;;7.00;94.10
42633;BME280;28261;53.304;-6.284;2022-11-24T05:37:27;98660.16;;;6.93;94.97
42633;BME280;28261;53.304;-6.284;2022-11-24T05:39:31;98651.09;;;6.86;94.99
42633;BME280;28261;53.304;-6.284;2022-11-24T05:41:35;98646.72;;;6.75;95.08
42633;BME280;28261;53.304;-6.284;2022-11-24T05:43:39;98638.50;;;6.68;95.56
42633;BME280;28261;53.304;-6.284;2022-11-24T05:45:43;98631.75;;;6.66;95.94
42633;BME280;28261;53.304;-6.284;2022-11-24T05:47:48;98615.34;;;6.62;95.96
42633;BME280;28261;53.304;-6.284;2022-11-24T05:49:52;98613.69;;;6.61;96.12
42633;BME280;28261;53.304;-6.284;2022-11-24T05:51:56;98607.81;;;6.57;96.63
42633;BME280;28261;53.304;-6.284;2022-11-24T05:54:00;98619.22;;;6.58;96.97
42633;BME280;28261;53.304;-6.284;2022-11-24T05:56:04;98611.75;;;6.63;97.22
42633;BME280;28261;53.304;-6.284;2022-11-24T05:58:09;98601.56;;;6.70;97.73
42633;BME280;28261;53.304;-6.284;2022-11-24T06:00:13;98594.50;;;6.80;97.96
42633;BME280;28261;53.304;-6.284;2022-11-24T06:02:19;98593.31;;;6.94;98.01
42633;BME280;28261;53.304;-6.284;2022-11-24T06:04:24;98590.66;;;7.15;97.91
42633;BME280;28261;53.304;-6.284;2022-11-24T06:06:28;98590.97;;;7.32;97.15
42633;BME280;28261;53.304;-6.284;2022-11-24T06:08:33;98572.41;;;7.43;97.08
42633;BME280;28261;53.304;-6.284;2022-11-24T06:10:36;98576.84;;;7.52;96.22
42633;BME280;28261;53.304;-6.284;2022-11-24T06:12:40;98564.94;;;7.58;96.34
42633;BME280;28261;53.304;-6.284;2022-11-24T06:14:44;98547.44;;;7.67;96.65
42633;BME280;28261;53.304;-6.284;2022-11-24T06:16:47;98557.16;;;7.76;96.62
42633;BME280;28261;53.304;-6.284;2022-11-24T06:18:52;98545.06;;;7.83;96.58
42633;BME280;28261;53.304;-6.284;2022-11-24T06:20:57;98547.31;;;7.88;96.39
42633;BME280;28261;53.304;-6.284;2022-11-24T06:23:12;98549.53;;;7.92;96.90
42633;BME280;28261;53.304;-6.284;2022-11-24T06:25:16;98536.91;;;7.96;97.20
42633;BME280;28261;53.304;-6.284;2022-11-24T06:27:20;98544.94;;;8.04;97.09
42633;BME280;28261;53.304;-6.284;2022-11-24T06:29:24;98537.44;;;8.09;96.85
42633;BME280;28261;53.304;-6.284;2022-11-24T06:31:28;98534.50;;;8.12;97.65
42633;BME280;28261;53.304;-6.284;2022-11-24T06:33:32;98521.03;;;8.16;97.61
42633;BME280;28261;53.304;-6.284;2022-11-24T06:35:36;98534.94;;;8.18;97.11
42633;BME280;28261;53.304;-6.284;2022-11-24T06:37:41;98532.69;;;8.23;97.42
42633;BME280;28261;53.304;-6.284;2022-11-24T06:39:46;98533.09;;;8.28;98.22
42633;BME280;28261;53.304;-6.284;2022-11-24T06:41:51;98530.19;;;8.31;98.25
42633;BME280;28261;53.304;-6.284;2022-11-24T06:43:54;98545.03;;;8.32;99.39
42633;BME280;28261;53.304;-6.284;2022-11-24T06:45:58;98534.63;;;8.30;100.00
42633;BME280;28261;53.304;-6.284;2022-11-24T06:48:02;98523.53;;;8.27;100.00
42633;BME280;28261;53.304;-6.284;2022-11-24T06:50:08;98513.94;;;8.26;100.00
42633;BME280;28261;53.304;-6.284;2022-11-24T06:52:12;98511.28;;;8.26;100.00
42633;BME280;28261;53.304;-6.284;2022-11-24T06:54:18;98493.94;;;8.23;100.00
42633;BME280;28261;53.304;-6.284;2022-11-24T06:56:23;98478.91;;;8.24;100.00
42633;BME280;28261;53.304;-6.284;2022-11-24T06:58:27;98470.84;;;8.25;100.00
42633;BME280;28261;53.304;-6.284;2022-11-24T07:00:30;98459.47;;;8.25;100.00
42633;BME280;28261;53.304;-6.284;2022-11-24T07:02:34;98458.78;;;8.23;100.00
42633;BME280;28261;53.304;-6.284;2022-11-24T07:04:46;98459.78;;;8.22;100.00
42633;BME280;28261;53.304;-6.284;2022-11-24T07:06:50;98465.72;;;8.24;100.00
42633;BME280;28261;53.304;-6.284;2022-11-24T07:08:54;98441.28;;;8.22;100.00
42633;BME280;28261;53.304;-6.284;2022-11-24T07:11:04;98442.66;;;8.26;100.00
42633;BME280;28261;53.304;-6.284;2022-11-24T07:13:08;98445.72;;;8.31;100.00
42633;BME280;28261;53.304;-6.284;2022-11-24T07:15:12;98440.13;;;8.34;100.00
42633;BME280;28261;53.304;-6.284;2022-11-24T07:17:16;98451.50;;;8.35;100.00
42633;BME280;28261;53.304;-6.284;2022-11-24T07:19:20;98450.53;;;8.36;100.00
42633;BME280;28261;53.304;-6.284;2022-11-24T07:21:27;98434.84;;;8.34;100.00
42633;BME280;28261;53.304;-6.284;2022-11-24T07:23:32;98398.72;;;8.35;100.00
42633;BME280;28261;53.304;-6.284;2022-11-24T07:25:37;98389.81;;;8.36;100.00
42633;BME280;28261;53.304;-6.284;2022-11-24T07:27:43;98404.00;;;8.35;100.00
42633;BME280;28261;53.304;-6.284;2022-11-24T07:29:46;98398.03;;;8.33;100.00
42633;BME280;28261;53.304;-6.284;2022-11-24T07:31:50;98391.91;;;8.32;100.00
42633;BME280;28261;53.304;-6.284;2022-11-24T07:33:55;98388.16;;;8.35;100.00
42633;BME280;28261;53.304;-6.284;2022-11-24T07:35:59;98391.34;;;8.38;100.00
42633;BME280;28261;53.304;-6.284;2022-11-24T07:38:03;98381.47;;;8.40;100.00
42633;BME280;28261;53.304;-6.284;2022-11-24T07:40:09;98360.34;;;8.40;100.00
42633;BME280;28261;53.304;-6.284;2022-11-24T07:42:13;98362.00;;;8.41;100.00
42633;BME280;28261;53.304;-6.284;2022-11-24T07:44:18;98359.22;;;8.43;100.00
42633;BME280;28261;53.304;-6.284;2022-11-24T07:46:22;98360.34;;;8.40;100.00
42633;BME280;28261;53.304;-6.284;2022-11-24T07:48:26;98360.34;;;8.40;100.00
42633;BME280;28261;53.304;-6.284;2022-11-24T07:50:30;98348.97;;;8.40;100.00
42633;BME280;28261;53.304;-6.284;2022-11-24T07:52:33;98327.84;;;8.40;100.00
42633;BME280;28261;53.304;-6.284;2022-11-24T07:54:37;98327.53;;;8.43;100.00
42633;BME280;28261;53.304;-6.284;2022-11-24T07:56:41;98303.63;;;8.44;100.00
42633;BME280;28261;53.304;-6.284;2022-11-24T07:58:45;98297.41;;;8.45;100.00
42633;BME280;28261;53.304;-6.284;2022-11-24T08:00:55;98285.00;;;8.46;100.00
42633;BME280;28261;53.304;-6.284;2022-11-24T08:02:59;98281.41;;;8.47;100.00
42633;BME280;28261;53.304;-6.284;2022-11-24T08:05:03;98259.16;;;8.50;100.00
42633;BME280;28261;53.304;-6.284;2022-11-24T08:07:07;98266.09;;;8.51;100.00
42633;BME280;28261;53.304;-6.284;2022-11-24T08:09:11;98271.22;;;8.52;100.00
42633;BME280;28261;53.304;-6.284;2022-11-24T08:11:16;98268.44;;;8.54;100.00
42633;BME280;28261;53.304;-6.284;2022-11-24T08:13:20;98247.00;;;8.57;100.00
42633;BME280;28261;53.304;-6.284;2022-11-24T08:15:24;98245.44;;;8.64;100.00
42633;BME280;28261;53.304;-6.284;2022-11-24T08:17:29;98246.78;;;8.68;100.00
42633;BME280;28261;53.304;-6.284;2022-11-24T08:19:32;98255.22;;;8.72;100.00
42633;BME280;28261;53.304;-6.284;2022-11-24T08:21:36;98256.72;;;8.74;100.00
42633;BME280;28261;53.304;-6.284;2022-11-24T08:23:41;98244.88;;;8.78;100.00
42633;BME280;28261;53.304;-6.284;2022-11-24T08:25:44;98235.66;;;8.83;100.00
42633;BME280;28261;53.304;-6.284;2022-11-24T08:27:48;98221.16;;;8.87;100.00
42633;BME280;28261;53.304;-6.284;2022-11-24T08:29:52;98212.78;;;8.91;100.00
42633;BME280;28261;53.304;-6.284;2022-11-24T08:31:56;98212.78;;;8.91;100.00
42633;BME280;28261;53.304;-6.284;2022-11-24T08:34:03;98201.22;;;8.92;100.00
42633;BME280;28261;53.304;-6.284;2022-11-24T08:36:09;98199.44;;;8.93;100.00
42633;BME280;28261;53.304;-6.284;2022-11-24T08:38:13;98198.13;;;8.97;100.00
42633;BME280;28261;53.304;-6.284;2022-11-24T08:40:18;98206.44;;;9.02;100.00
42633;BME280;28261;53.304;-6.284;2022-11-24T08:42:21;98195.53;;;9.05;100.00
42633;BME280;28261;53.304;-6.284;2022-11-24T08:44:25;98238.81;;;9.04;100.00
42633;BME280;28261;53.304;-6.284;2022-11-24T08:46:29;98222.56;;;8.99;100.00
42633;BME280;28261;53.304;-6.284;2022-11-24T08:48:33;98222.34;;;8.92;100.00
42633;BME280;28261;53.304;-6.284;2022-11-24T08:50:39;98226.91;;;8.82;100.00
42633;BME280;28261;53.304;-6.284;2022-11-24T08:52:42;98264.66;;;8.74;100.00
42633;BME280;28261;53.304;-6.284;2022-11-24T08:54:46;98271.53;;;8.67;100.00
42633;BME280;28261;53.304;-6.284;2022-11-24T08:56:50;98270.50;;;8.60;100.00
42633;BME280;28261;53.304;-6.284;2022-11-24T08:58:55;98263.63;;;8.49;100.00
42633;BME280;28261;53.304;-6.284;2022-11-24T09:01:03;98291.69;;;8.40;100.00
42633;BME280;28261;53.304;-6.284;2022-11-24T09:03:10;98277.59;;;8.32;100.00
42633;BME280;28261;53.304;-6.284;2022-11-24T09:05:15;98282.09;;;8.21;100.00
42633;BME280;28261;53.304;-6.284;2022-11-24T09:07:40;98295.19;;;8.13;100.00
42633;BME280;28261;53.304;-6.284;2022-11-24T09:09:45;98272.03;;;8.07;100.00
42633;BME280;28261;53.304;-6.284;2022-11-24T09:11:49;98259.56;;;7.99;100.00
42633;BME280;28261;53.304;-6.284;2022-11-24T09:13:54;98253.25;;;7.92;100.00
42633;BME280;28261;53.304;-6.284;2022-11-24T09:16:01;98232.03;;;7.84;100.00
42633;BME280;28261;53.304;-6.284;2022-11-24T09:18:06;98237.22;;;7.75;100.00
42633;BME280;28261;53.304;-6.284;2022-11-24T09:20:10;98235.00;;;7.71;100.00
42633;BME280;28261;53.304;-6.284;2022-11-24T09:22:14;98236.72;;;7.62;100.00
42633;BME280;28261;53.304;-6.284;2022-11-24T09:24:22;98209.94;;;7.57;100.00
42633;BME280;28261;53.304;-6.284;2022-11-24T09:26:28;98213.03;;;7.52;100.00
42633;BME280;28261;53.304;-6.284;2022-11-24T09:28:32;98185.47;;;7.47;100.00
42633;BME280;28261;53.304;-6.284;2022-11-24T09:30:37;98180.44;;;7.43;100.00
42633;BME280;28261;53.304;-6.284;2022-11-24T09:32:42;98169.53;;;7.38;100.00
42633;BME280;28261;53.304;-6.284;2022-11-24T09:34:46;98176.75;;;7.36;100.00
42633;BME280;28261;53.304;-6.284;2022-11-24T09:36:50;98176.06;;;7.34;100.00
42633;BME280;28261;53.304;-6.284;2022-11-24T09:38:54;98173.59;;;7.33;100.00
42633;BME280;28261;53.304;-6.284;2022-11-24T09:43:32;98129.59;;;7.33;100.00
42633;BME280;28261;53.304;-6.284;2022-11-24T09:45:44;98123.38;;;7.34;100.00
42633;BME280;28261;53.304;-6.284;2022-11-24T09:48:09;98108.22;;;7.36;100.00
42633;BME280;28261;53.304;-6.284;2022-11-24T09:50:18;98119.31;;;7.40;100.00
42633;BME280;28261;53.304;-6.284;2022-11-24T09:52:37;98130.25;;;7.45;100.00
42633;BME280;28261;53.304;-6.284;2022-11-24T09:54:48;98127.97;;;7.50;100.00
42633;BME280;28261;53.304;-6.284;2022-11-24T09:56:57;98125.06;;;7.53;100.00
42633;BME280;28261;53.304;-6.284;2022-11-24T09:59:09;98133.06;;;7.61;100.00
42633;BME280;28261;53.304;-6.284;2022-11-24T10:01:18;98135.94;;;7.68;100.00
42633;BME280;28261;53.304;-6.284;2022-11-24T10:03:26;98123.81;;;7.75;100.00
42633;BME280;28261;53.304;-6.284;2022-11-24T10:05:35;98132.63;;;7.84;100.00
42633;BME280;28261;53.304;-6.284;2022-11-24T10:07:44;98147.88;;;7.90;100.00
42633;BME280;28261;53.304;-6.284;2022-11-24T10:09:57;98153.38;;;7.97;100.00
42633;BME280;28261;53.304;-6.284;2022-11-24T10:12:14;98158.03;;;8.03;100.00
42633;BME280;28261;53.304;-6.284;2022-11-24T10:14:35;98161.22;;;8.07;100.00
42633;BME280;28261;53.304;-6.284;2022-11-24T10:16:49;98157.47;;;8.09;100.00
42633;BME280;28261;53.304;-6.284;2022-11-24T10:19:02;98164.25;;;8.12;100.00
42633;BME280;28261;53.304;-6.284;2022-11-24T10:21:25;98165.72;;;8.14;100.00
42633;BME280;28261;53.304;-6.284;2022-11-24T10:23:52;98169.06;;;8.17;100.00
42633;BME280;28261;53.304;-6.284;2022-11-24T10:25:59;98179.47;;;8.18;100.00
42633;BME280;28261;53.304;-6.284;2022-11-24T10:28:10;98171.25;;;8.21;100.00
42633;BME280;28261;53.304;-6.284;2022-11-24T10:30:17;98197.63;;;8.21;100.00
42633;BME280;28261;53.304;-6.284;2022-11-24T10:32:25;98183.47;;;8.22;100.00
42633;BME280;28261;53.304;-6.284;2022-11-24T10:34:35;98188.59;;;8.24;100.00
42633;BME280;28261;53.304;-6.284;2022-11-24T10:36:46;98194.56;;;8.26;100.00
42633;BME280;28261;53.304;-6.284;2022-11-24T10:39:02;98192.59;;;8.28;100.00
42633;BME280;28261;53.304;-6.284;2022-11-24T10:41:12;98211.13;;;8.36;100.00
42633;BME280;28261;53.304;-6.284;2022-11-24T10:43:21;98199.72;;;8.45;100.00
42633;BME280;28261;53.304;-6.284;2022-11-24T10:45:27;98193.00;;;8.51;100.00
42633;BME280;28261;53.304;-6.284;2022-11-24T10:47:32;98198.28;;;8.51;100.00
42633;BME280;28261;53.304;-6.284;2022-11-24T10:49:37;98209.69;;;8.52;100.00
42633;BME280;28261;53.304;-6.284;2022-11-24T10:51:48;98195.63;;;8.51;100.00
42633;BME280;28261;53.304;-6.284;2022-11-24T10:53:59;98190.19;;;8.53;100.00
42633;BME280;28261;53.304;-6.284;2022-11-24T10:56:04;98176.69;;;8.56;99.91
42633;BME280;28261;53.304;-6.284;2022-11-24T10:58:15;98174.13;;;8.64;98.96
42633;BME280;28261;53.304;-6.284;2022-11-24T11:00:31;98182.28;;;8.71;97.30
42633;BME280;28261;53.304;-6.284;2022-11-24T11:02:38;98178.03;;;8.78;97.94
42633;BME280;28261;53.304;-6.284;2022-11-24T11:04:43;98194.91;;;8.85;97.59
42633;BME280;28261;53.304;-6.284;2022-11-24T11:06:48;98201.38;;;8.91;96.28